createdAt,value
2018-01-19T00:00:12.120Z,72.12
2018-01-19T00:01:17.946Z,72.08
2018-01-19T00:02:23.692Z,72.07
2018-01-19T00:03:29.095Z,72.05
2018-01-19T00:04:36.007Z,72.05
2018-01-19T00:05:42.136Z,72.06
2018-01-19T00:06:48.683Z,72.10
2018-01-19T00:07:55.265Z,72.12
2018-01-19T00:09:01.161Z,72.27
2018-01-19T00:10:06.895Z,72.33
2018-01-19T00:11:12.633Z,72.43
2018-01-19T00:12:18.386Z,72.44
2018-01-19T00:13:24.103Z,72.57
2018-01-19T00:14:29.912Z,72.51
2018-01-19T00:15:35.642Z,72.36
2018-01-19T00:16:42.207Z,72.38
2018-01-19T00:17:48.531Z,72.36
2018-01-19T00:18:54.253Z,72.30
2018-01-19T00:19:59.974Z,72.23
2018-01-19T00:21:05.703Z,72.18
2018-01-19T00:22:11.443Z,72.21
2018-01-19T00:23:20.033Z,72.23
2018-01-19T00:24:26.537Z,72.22
2018-01-19T00:25:32.275Z,72.30
2018-01-19T00:26:38.187Z,72.33
2018-01-19T00:27:44.027Z,72.47
2018-01-19T00:28:49.794Z,72.55
2018-01-19T00:29:55.508Z,72.53
2018-01-19T00:31:02.011Z,72.52
2018-01-19T00:32:07.576Z,72.55
2018-01-19T00:33:13.318Z,72.57
2018-01-19T00:34:19.072Z,72.56
2018-01-19T00:35:25.558Z,72.66
2018-01-19T00:36:31.515Z,72.68
2018-01-19T00:37:37.233Z,72.67
2018-01-19T00:38:42.975Z,72.83
2018-01-19T00:39:49.498Z,72.82
2018-01-19T00:40:55.219Z,72.87
2018-01-19T00:42:00.938Z,72.86
2018-01-19T00:43:06.688Z,72.86
2018-01-19T00:44:12.430Z,72.74
2018-01-19T00:45:18.190Z,72.79
2018-01-19T00:46:23.905Z,72.81
2018-01-19T00:47:29.644Z,72.83
2018-01-19T00:48:35.399Z,72.81
2018-01-19T00:49:41.136Z,72.87
2018-01-19T00:50:46.894Z,72.87
2018-01-19T00:51:52.623Z,72.80
2018-01-19T00:52:58.354Z,72.70
2018-01-19T00:54:04.064Z,72.62
2018-01-19T00:55:09.771Z,72.52
2018-01-19T00:56:15.534Z,72.46
2018-01-19T00:57:22.017Z,72.31
2018-01-19T00:58:27.415Z,72.29
2018-01-19T00:59:33.123Z,72.27
2018-01-19T01:00:38.839Z,72.15
2018-01-19T01:01:44.570Z,72.08
2018-01-19T01:02:50.287Z,71.99
2018-01-19T01:03:56.792Z,71.90
2018-01-19T01:05:02.568Z,71.79
2018-01-19T01:06:08.317Z,71.68
2018-01-19T01:07:15.567Z,71.51
2018-01-19T01:08:21.294Z,71.43
2018-01-19T01:09:27.046Z,71.38
2018-01-19T01:10:32.805Z,71.38
2018-01-19T01:11:38.531Z,71.33
2018-01-19T01:12:44.324Z,71.29
2018-01-19T01:13:50.825Z,71.14
2018-01-19T01:14:56.597Z,71.11
2018-01-19T01:16:03.842Z,71.07
2018-01-19T01:17:10.039Z,71.01
2018-01-19T01:18:15.880Z,70.94
2018-01-19T01:19:22.435Z,70.88
2018-01-19T01:20:28.349Z,70.74
2018-01-19T01:21:34.078Z,70.66
2018-01-19T01:22:39.817Z,70.65
2018-01-19T01:23:45.578Z,70.55
2018-01-19T01:24:51.662Z,70.55
2018-01-19T01:25:58.164Z,70.40
2018-01-19T01:27:03.913Z,70.22
2018-01-19T01:28:09.637Z,70.10
2018-01-19T01:29:15.390Z,70.06
2018-01-19T01:30:21.129Z,69.98
2018-01-19T01:31:26.859Z,69.94
2018-01-19T01:32:32.589Z,69.84
2018-01-19T01:33:38.304Z,69.71
2018-01-19T01:34:44.824Z,69.55
2018-01-19T01:35:50.969Z,69.51
2018-01-19T01:36:56.484Z,69.42
2018-01-19T01:38:02.235Z,69.32
2018-01-19T01:39:07.968Z,69.21
2018-01-19T01:40:13.726Z,69.22
2018-01-19T01:41:19.450Z,69.20
2018-01-19T01:42:25.202Z,69.29
2018-01-19T01:43:30.931Z,69.31
2018-01-19T01:44:36.669Z,69.23
2018-01-19T01:45:42.980Z,69.19
2018-01-19T01:46:48.714Z,69.14
2018-01-19T01:47:54.221Z,68.99
2018-01-19T01:49:11.824Z,68.89
2018-01-19T01:50:17.559Z,68.91
2018-01-19T01:51:23.339Z,69.09
2018-01-19T01:52:29.065Z,69.06
2018-01-19T01:53:34.791Z,69.06
2018-01-19T01:54:40.613Z,69.10
2018-01-19T01:55:46.348Z,69.05
2018-01-19T01:56:52.870Z,69.11
2018-01-19T01:57:58.610Z,68.99
2018-01-19T01:59:04.336Z,69.01
2018-01-19T02:00:10.066Z,69.06
2018-01-19T02:01:15.794Z,69.00
2018-01-19T02:02:21.524Z,68.90
2018-01-19T02:03:27.292Z,68.87
2018-01-19T02:04:33.016Z,68.83
2018-01-19T02:05:38.742Z,68.76
2018-01-19T02:06:44.471Z,68.72
2018-01-19T02:07:50.995Z,68.67
2018-01-19T02:08:56.705Z,68.62
2018-01-19T02:10:02.424Z,68.57
2018-01-19T02:11:08.163Z,68.45
2018-01-19T02:12:13.902Z,68.40
2018-01-19T02:13:20.432Z,68.35
2018-01-19T02:14:26.219Z,68.40
2018-01-19T02:15:31.943Z,68.46
2018-01-19T02:16:38.424Z,68.44
2018-01-19T02:17:44.150Z,68.38
2018-01-19T02:18:49.900Z,68.40
2018-01-19T02:19:55.632Z,68.47
2018-01-19T02:21:02.134Z,68.57
2018-01-19T02:22:07.859Z,68.54
2018-01-19T02:23:13.268Z,68.51
2018-01-19T02:24:19.033Z,68.55
2018-01-19T02:25:24.752Z,68.65
2018-01-19T02:26:30.481Z,68.79
2018-01-19T02:27:36.962Z,68.96
2018-01-19T02:28:42.747Z,68.98
2018-01-19T02:29:48.502Z,69.21
2018-01-19T02:30:54.231Z,69.33
2018-01-19T02:31:59.940Z,69.51
2018-01-19T02:33:05.671Z,69.73
2018-01-19T02:34:11.384Z,69.83
2018-01-19T02:35:17.920Z,69.90
2018-01-19T02:36:23.658Z,69.92
2018-01-19T02:37:30.869Z,69.99
2018-01-19T02:38:36.592Z,70.10
2018-01-19T02:39:43.091Z,70.27
2018-01-19T02:40:48.832Z,70.39
2018-01-19T02:41:54.677Z,70.47
2018-01-19T02:43:00.415Z,70.40
2018-01-19T02:44:06.146Z,70.44
2018-01-19T02:45:11.855Z,70.40
2018-01-19T02:46:18.366Z,70.41
2018-01-19T02:47:24.109Z,70.43
2018-01-19T02:48:29.820Z,70.38
2018-01-19T02:49:35.554Z,70.35
2018-01-19T02:50:41.284Z,70.36
2018-01-19T02:51:47.244Z,70.23
2018-01-19T02:52:52.960Z,70.10
2018-01-19T02:53:59.460Z,70.03
2018-01-19T02:55:05.214Z,70.04
2018-01-19T02:56:10.947Z,70.00
2018-01-19T02:57:16.696Z,69.99
2018-01-19T02:58:22.419Z,69.96
2018-01-19T02:59:28.123Z,69.87
2018-01-19T03:00:34.282Z,69.90
2018-01-19T03:01:40.778Z,69.93
2018-01-19T03:02:46.547Z,69.87
2018-01-19T03:03:52.255Z,69.88
2018-01-19T03:04:57.661Z,69.86
2018-01-19T03:06:04.196Z,69.76
2018-01-19T03:07:10.035Z,69.66
2018-01-19T03:08:15.789Z,69.60
2018-01-19T03:09:22.348Z,69.57
2018-01-19T03:10:28.085Z,69.49
2018-01-19T03:11:33.814Z,69.48
2018-01-19T03:12:39.574Z,69.46
2018-01-19T03:13:46.207Z,69.38
2018-01-19T03:14:51.928Z,69.30
2018-01-19T03:15:57.662Z,69.27
2018-01-19T03:17:03.402Z,69.17
2018-01-19T03:18:09.328Z,69.12
2018-01-19T03:19:15.166Z,69.02
2018-01-19T03:20:21.651Z,68.90
2018-01-19T03:21:27.464Z,68.86
2018-01-19T03:22:33.958Z,68.81
2018-01-19T03:23:39.799Z,68.86
2018-01-19T03:24:45.542Z,68.62
2018-01-19T03:25:51.351Z,68.46
2018-01-19T03:26:57.836Z,68.24
2018-01-19T03:28:03.551Z,68.11
2018-01-19T03:29:10.071Z,68.13
2018-01-19T03:30:15.833Z,68.14
2018-01-19T03:31:21.563Z,68.06
2018-01-19T03:32:27.333Z,67.99
2018-01-19T03:33:33.813Z,67.93
2018-01-19T03:34:39.546Z,67.90
2018-01-19T03:35:45.538Z,67.88
2018-01-19T03:36:51.269Z,67.74
2018-01-19T03:37:56.987Z,67.79
2018-01-19T03:39:02.628Z,67.84
2018-01-19T03:40:08.550Z,67.81
2018-01-19T03:41:14.302Z,67.82
2018-01-19T03:42:20.030Z,67.82
2018-01-19T03:43:25.764Z,67.74
2018-01-19T03:44:32.274Z,67.67
2018-01-19T03:45:38.015Z,67.62
2018-01-19T03:46:43.752Z,67.64
2018-01-19T03:47:49.467Z,67.61
2018-01-19T03:48:55.361Z,67.55
2018-01-19T03:50:02.508Z,67.55
2018-01-19T03:51:08.255Z,67.56
2018-01-19T03:52:14.011Z,67.55
2018-01-19T03:53:20.725Z,67.62
2018-01-19T03:54:26.449Z,67.54
2018-01-19T03:55:32.754Z,67.54
2018-01-19T03:56:38.460Z,67.63
2018-01-19T03:57:44.219Z,67.67
2018-01-19T03:58:49.771Z,67.63
2018-01-19T03:59:55.488Z,67.58
2018-01-19T04:01:01.294Z,67.60
2018-01-19T04:02:07.180Z,67.61
2018-01-19T04:03:12.954Z,67.66
2018-01-19T04:04:18.682Z,67.78
2018-01-19T04:05:24.396Z,67.91
2018-01-19T04:06:30.154Z,67.91
2018-01-19T04:07:35.889Z,67.92
2018-01-19T04:08:41.646Z,67.93
2018-01-19T04:09:47.355Z,67.92
2018-01-19T04:10:53.081Z,67.99
2018-01-19T04:11:59.016Z,67.98
2018-01-19T04:13:05.507Z,67.98
2018-01-19T04:14:11.266Z,67.99
2018-01-19T04:15:16.981Z,68.04
2018-01-19T04:16:22.699Z,68.12
2018-01-19T04:17:29.230Z,68.22
2018-01-19T04:18:34.938Z,68.21
2018-01-19T04:19:40.675Z,68.17
2018-01-19T04:20:46.408Z,68.28
2018-01-19T04:21:52.338Z,68.27
2018-01-19T04:22:58.898Z,68.29
2018-01-19T04:24:05.398Z,68.29
2018-01-19T04:25:11.136Z,68.34
2018-01-19T04:26:16.865Z,68.32
2018-01-19T04:27:22.570Z,68.31
2018-01-19T04:28:29.094Z,68.29
2018-01-19T04:29:35.010Z,68.38
2018-01-19T04:30:40.745Z,68.23
2018-01-19T04:31:46.452Z,68.19
2018-01-19T04:32:52.955Z,68.20
2018-01-19T04:33:58.664Z,68.16
2018-01-19T04:35:04.830Z,68.19
2018-01-19T04:36:10.660Z,68.30
2018-01-19T04:37:16.396Z,68.31
2018-01-19T04:38:22.960Z,68.26
2018-01-19T04:39:28.512Z,68.28
2018-01-19T04:40:34.036Z,68.24
2018-01-19T04:41:39.824Z,68.28
2018-01-19T04:42:45.383Z,68.32
2018-01-19T04:43:51.123Z,68.35
2018-01-19T04:44:57.616Z,68.36
2018-01-19T04:46:03.151Z,68.35
2018-01-19T04:47:08.714Z,68.37
2018-01-19T04:48:14.453Z,68.37
2018-01-19T04:49:20.195Z,68.42
2018-01-19T04:50:25.940Z,68.44
2018-01-19T04:51:31.687Z,68.47
2018-01-19T04:52:37.474Z,68.52
2018-01-19T04:53:43.995Z,68.49
2018-01-19T04:54:49.716Z,68.48
2018-01-19T04:55:55.440Z,68.44
2018-01-19T04:57:00.986Z,68.49
2018-01-19T04:58:06.595Z,68.56
2018-01-19T04:59:13.109Z,68.56
2018-01-19T05:00:19.126Z,68.51
2018-01-19T05:01:24.867Z,68.53
2018-01-19T05:02:30.650Z,68.49
2018-01-19T05:03:36.412Z,68.51
2018-01-19T05:04:42.152Z,68.41
2018-01-19T05:05:47.896Z,68.38
2018-01-19T05:06:53.611Z,68.30
2018-01-19T05:07:59.342Z,68.24
2018-01-19T05:09:04.190Z,68.20
2018-01-19T05:10:09.922Z,68.08
2018-01-19T05:11:15.648Z,68.01
2018-01-19T05:12:21.370Z,67.99
2018-01-19T05:13:27.106Z,67.91
2018-01-19T05:14:32.849Z,67.83
2018-01-19T05:15:38.588Z,67.84
2018-01-19T05:16:44.331Z,67.85
2018-01-19T05:17:50.048Z,67.75
2018-01-19T05:18:55.764Z,67.70
2018-01-19T05:20:01.500Z,67.77
2018-01-19T05:21:07.228Z,67.73
2018-01-19T05:22:12.958Z,67.77
2018-01-19T05:23:18.682Z,67.73
2018-01-19T05:24:24.390Z,67.75
2018-01-19T05:25:30.896Z,67.73
2018-01-19T05:26:36.621Z,67.68
2018-01-19T05:27:42.348Z,67.66
2018-01-19T05:28:48.078Z,67.65
2018-01-19T05:29:53.797Z,67.77
2018-01-19T05:31:00.439Z,67.78
2018-01-19T05:32:06.160Z,67.77
2018-01-19T05:33:11.890Z,67.80
2018-01-19T05:34:17.622Z,67.80
2018-01-19T05:35:23.366Z,67.85
2018-01-19T05:36:29.377Z,67.87
2018-01-19T05:37:35.933Z,67.85
2018-01-19T05:38:41.521Z,67.85
2018-01-19T05:39:47.272Z,67.86
2018-01-19T05:40:53.118Z,67.93
2018-01-19T05:41:58.893Z,67.99
2018-01-19T05:43:05.387Z,68.04
2018-01-19T05:44:11.125Z,68.17
2018-01-19T05:45:16.867Z,68.29
2018-01-19T05:46:22.671Z,68.48
2018-01-19T05:47:29.482Z,68.47
2018-01-19T05:48:35.213Z,68.43
2018-01-19T05:49:40.919Z,68.51
2018-01-19T05:50:47.567Z,68.46
2018-01-19T05:51:53.281Z,68.45
2018-01-19T05:52:59.088Z,68.55
2018-01-19T05:54:05.582Z,68.52
2018-01-19T05:55:11.315Z,68.48
2018-01-19T05:56:17.062Z,68.54
2018-01-19T05:57:22.799Z,68.51
2018-01-19T05:58:28.534Z,68.55
2018-01-19T05:59:35.012Z,68.58
2018-01-19T06:00:40.739Z,68.56
2018-01-19T06:01:46.524Z,68.64
2018-01-19T06:02:52.239Z,68.68
2018-01-19T06:03:58.242Z,68.69
2018-01-19T06:05:03.985Z,68.76
2018-01-19T06:06:09.708Z,68.74
2018-01-19T06:07:16.102Z,68.75
2018-01-19T06:08:21.859Z,68.81
2018-01-19T06:09:27.627Z,68.80
2018-01-19T06:10:33.061Z,68.75
2018-01-19T06:11:38.819Z,68.77
2018-01-19T06:12:45.355Z,68.63
2018-01-19T06:13:51.091Z,68.46
2018-01-19T06:14:56.854Z,68.38
2018-01-19T06:16:02.619Z,68.30
2018-01-19T06:17:08.337Z,67.92
2018-01-19T06:18:14.848Z,67.83
2018-01-19T06:19:20.646Z,67.66
2018-01-19T06:20:27.157Z,67.65
2018-01-19T06:21:33.070Z,67.79
2018-01-19T06:22:38.840Z,67.90
2018-01-19T06:23:44.577Z,67.94
2018-01-19T06:24:51.608Z,67.93
2018-01-19T06:25:57.414Z,68.08
2018-01-19T06:27:03.150Z,68.17
2018-01-19T06:28:08.880Z,68.26
2018-01-19T06:29:14.593Z,68.30
2018-01-19T06:30:20.330Z,68.37
2018-01-19T06:31:26.306Z,68.45
2018-01-19T06:32:32.046Z,68.53
2018-01-19T06:33:37.775Z,68.64
2018-01-19T06:34:43.498Z,68.65
2018-01-19T06:35:49.215Z,68.66
2018-01-19T06:36:54.959Z,68.60
2018-01-19T06:38:01.445Z,68.73
2018-01-19T06:39:06.831Z,68.81
2018-01-19T06:40:12.577Z,68.82
2018-01-19T06:41:18.315Z,68.75
2018-01-19T06:42:24.076Z,68.76
2018-01-19T06:43:30.567Z,68.89
2018-01-19T06:44:36.301Z,69.01
2018-01-19T06:45:42.017Z,69.18
2018-01-19T06:46:48.510Z,69.13
2018-01-19T06:47:54.271Z,69.18
2018-01-19T06:49:00.084Z,69.16
2018-01-19T06:50:05.820Z,69.13
2018-01-19T06:51:11.554Z,69.20
2018-01-19T06:52:18.069Z,69.21
2018-01-19T06:53:23.850Z,69.10
2018-01-19T06:54:30.351Z,69.00
2018-01-19T06:55:36.096Z,68.99
2018-01-19T06:56:41.826Z,68.94
2018-01-19T06:57:47.606Z,68.92
2018-01-19T06:58:53.548Z,68.90
2018-01-19T06:59:59.092Z,68.93
2018-01-19T07:01:06.730Z,68.92
2018-01-19T07:02:12.273Z,68.87
2018-01-19T07:03:18.074Z,68.90
2018-01-19T07:04:23.850Z,68.92
2018-01-19T07:05:29.579Z,68.95
2018-01-19T07:06:35.295Z,68.99
2018-01-19T07:07:41.084Z,69.02
2018-01-19T07:08:46.995Z,69.01
2018-01-19T07:09:53.869Z,69.07
2018-01-19T07:10:59.575Z,69.10
2018-01-19T07:12:04.973Z,69.12
2018-01-19T07:13:10.689Z,69.18
2018-01-19T07:14:16.422Z,69.11
2018-01-19T07:15:22.180Z,69.03
2018-01-19T07:16:27.896Z,69.06
2018-01-19T07:17:33.753Z,69.10
2018-01-19T07:18:39.467Z,68.96
2018-01-19T07:19:45.966Z,69.01
2018-01-19T07:20:51.723Z,68.93
2018-01-19T07:21:57.435Z,68.87
2018-01-19T07:23:03.170Z,68.81
2018-01-19T07:24:08.910Z,68.76
2018-01-19T07:25:14.647Z,68.73
2018-01-19T07:26:20.413Z,68.70
2018-01-19T07:27:26.142Z,68.64
2018-01-19T07:28:31.875Z,68.62
2018-01-19T07:29:37.620Z,68.57
2018-01-19T07:30:43.368Z,68.55
2018-01-19T07:31:49.156Z,68.50
2018-01-19T07:32:54.891Z,68.40
2018-01-19T07:34:00.625Z,68.23
2018-01-19T07:35:06.327Z,68.16
2018-01-19T07:36:12.059Z,68.10
2018-01-19T07:37:18.573Z,68.06
2018-01-19T07:38:24.299Z,67.96
2018-01-19T07:39:29.855Z,67.77
2018-01-19T07:40:35.573Z,67.60
2018-01-19T07:41:41.318Z,67.55
2018-01-19T07:42:46.887Z,67.44
2018-01-19T07:43:52.615Z,67.33
2018-01-19T07:44:58.150Z,67.23
2018-01-19T07:46:03.680Z,67.24
2018-01-19T07:47:09.419Z,67.30
2018-01-19T07:48:15.155Z,67.30
2018-01-19T07:49:20.683Z,67.23
2018-01-19T07:50:26.419Z,67.23
2018-01-19T07:51:32.123Z,67.25
2018-01-19T07:52:37.854Z,67.27
2018-01-19T07:53:44.366Z,67.29
2018-01-19T07:54:50.089Z,67.27
2018-01-19T07:55:55.822Z,67.31
2018-01-19T07:57:01.532Z,67.32
2018-01-19T07:58:08.032Z,67.19
2018-01-19T07:59:13.787Z,67.05
2018-01-19T08:00:19.495Z,66.93
2018-01-19T08:01:25.662Z,66.87
2018-01-19T08:02:31.398Z,66.83
2018-01-19T08:03:37.135Z,66.63
2018-01-19T08:04:43.135Z,66.51
2018-01-19T08:05:48.884Z,66.42
2018-01-19T08:06:54.644Z,66.27
2018-01-19T08:08:01.338Z,66.13
2018-01-19T08:09:06.407Z,65.97
2018-01-19T08:10:12.148Z,65.71
2018-01-19T08:11:17.873Z,65.63
2018-01-19T08:12:23.588Z,65.54
2018-01-19T08:13:29.300Z,65.50
2018-01-19T08:14:35.780Z,65.46
2018-01-19T08:15:41.565Z,65.46
2018-01-19T08:16:47.276Z,65.41
2018-01-19T08:17:52.987Z,65.62
2018-01-19T08:18:58.917Z,65.84
2018-01-19T08:20:04.895Z,65.95
2018-01-19T08:21:10.772Z,66.02
2018-01-19T08:22:19.285Z,65.98
2018-01-19T08:23:25.010Z,66.04
2018-01-19T08:24:30.741Z,66.02
2018-01-19T08:25:36.464Z,66.22
2018-01-19T08:26:42.227Z,66.28
2018-01-19T08:27:47.957Z,66.04
2018-01-19T08:28:53.670Z,65.91
2018-01-19T08:30:00.142Z,65.92
2018-01-19T08:31:05.885Z,66.10
2018-01-19T08:32:11.628Z,66.13
2018-01-19T08:33:17.351Z,66.02
2018-01-19T08:34:23.852Z,65.81
2018-01-19T08:35:29.837Z,65.74
2018-01-19T08:36:36.334Z,65.85
2018-01-19T08:37:42.091Z,65.90
2018-01-19T08:38:47.807Z,65.72
2018-01-19T08:39:53.540Z,65.68
2018-01-19T08:41:00.016Z,65.81
2018-01-19T08:42:05.769Z,66.11
2018-01-19T08:43:11.550Z,65.95
2018-01-19T08:44:17.283Z,65.79
2018-01-19T08:45:23.017Z,65.84
2018-01-19T08:46:28.750Z,65.92
2018-01-19T08:47:34.528Z,65.95
2018-01-19T08:48:41.054Z,65.95
2018-01-19T08:49:46.777Z,65.79
2018-01-19T08:50:52.489Z,65.69
2018-01-19T08:51:58.986Z,65.62
2018-01-19T08:53:04.734Z,65.51
2018-01-19T08:54:10.494Z,65.35
2018-01-19T08:55:16.422Z,65.10
2018-01-19T08:56:22.159Z,64.99
2018-01-19T08:57:27.881Z,65.07
2018-01-19T08:58:33.618Z,64.75
2018-01-19T08:59:39.414Z,64.73
2018-01-19T09:00:45.142Z,64.83
2018-01-19T09:01:50.859Z,64.89
2018-01-19T09:02:56.568Z,64.96
2018-01-19T09:04:02.292Z,65.11
2018-01-19T09:05:08.482Z,65.09
2018-01-19T09:06:14.218Z,64.91
2018-01-19T09:07:19.952Z,64.88
2018-01-19T09:08:25.669Z,64.89
2018-01-19T09:09:32.161Z,64.75
2018-01-19T09:10:37.978Z,64.85
2018-01-19T09:11:43.714Z,64.67
2018-01-19T09:12:49.499Z,64.34
2018-01-19T09:13:56.158Z,64.33
2018-01-19T09:15:01.890Z,64.49
2018-01-19T09:16:07.654Z,64.47
2018-01-19T09:17:13.395Z,64.59
2018-01-19T09:18:19.107Z,64.25
2018-01-19T09:19:24.864Z,64.22
2018-01-19T09:20:30.580Z,64.10
2018-01-19T09:21:36.332Z,63.97
2018-01-19T09:22:42.055Z,64.13
2018-01-19T09:23:47.763Z,64.14
2018-01-19T09:24:53.943Z,63.96
2018-01-19T09:25:59.683Z,63.81
2018-01-19T09:27:06.189Z,63.82
2018-01-19T09:28:11.917Z,63.81
2018-01-19T09:29:17.688Z,63.87
2018-01-19T09:30:23.575Z,63.80
2018-01-19T09:31:29.280Z,63.63
2018-01-19T09:32:35.033Z,63.54
2018-01-19T09:33:41.523Z,63.33
2018-01-19T09:34:47.231Z,63.19
2018-01-19T09:35:52.968Z,62.99
2018-01-19T09:36:59.700Z,62.89
2018-01-19T09:38:05.496Z,62.80
2018-01-19T09:39:11.240Z,62.55
2018-01-19T09:40:16.957Z,62.34
2018-01-19T09:41:23.435Z,61.95
2018-01-19T09:42:29.257Z,61.98
2018-01-19T09:43:35.614Z,61.90
2018-01-19T09:44:42.099Z,61.85
2018-01-19T09:45:47.811Z,61.77
2018-01-19T09:46:53.550Z,61.79
2018-01-19T09:47:59.328Z,61.76
2018-01-19T09:49:05.095Z,61.74
2018-01-19T09:50:10.858Z,61.78
2018-01-19T09:51:16.594Z,61.58
2018-01-19T09:52:22.355Z,61.53
2018-01-19T09:53:28.076Z,61.45
2018-01-19T09:54:33.816Z,61.39
2018-01-19T09:55:39.547Z,61.17
2018-01-19T09:56:45.070Z,60.97
2018-01-19T09:57:50.815Z,60.92
2018-01-19T09:58:56.534Z,60.96
2018-01-19T10:00:03.063Z,60.88
2018-01-19T10:01:08.785Z,60.91
2018-01-19T10:02:14.511Z,60.96
2018-01-19T10:03:20.264Z,61.04
2018-01-19T10:04:25.984Z,61.05
2018-01-19T10:05:31.743Z,61.11
2018-01-19T10:06:37.464Z,61.04
2018-01-19T10:07:43.294Z,60.98
2018-01-19T10:08:49.035Z,60.99
2018-01-19T10:09:54.564Z,60.95
2018-01-19T10:11:00.352Z,61.07
2018-01-19T10:12:05.828Z,61.09
2018-01-19T10:13:11.565Z,61.09
2018-01-19T10:14:18.065Z,61.08
2018-01-19T10:15:23.799Z,61.27
2018-01-19T10:16:29.553Z,61.23
2018-01-19T10:17:35.278Z,61.10
2018-01-19T10:18:41.014Z,60.66
2018-01-19T10:19:46.746Z,60.54
2018-01-19T10:20:52.476Z,60.50
2018-01-19T10:21:58.358Z,60.65
2018-01-19T10:23:03.958Z,60.64
2018-01-19T10:24:09.677Z,60.47
2018-01-19T10:25:16.159Z,60.15
2018-01-19T10:26:21.887Z,59.89
2018-01-19T10:27:28.446Z,59.79
2018-01-19T10:28:34.929Z,59.25
2018-01-19T10:29:40.772Z,58.90
2018-01-19T10:30:46.539Z,58.85
2018-01-19T10:31:52.298Z,58.60
2018-01-19T10:32:58.054Z,58.29
2018-01-19T10:34:04.594Z,58.05
2018-01-19T10:35:10.318Z,57.68
2018-01-19T10:36:16.127Z,56.98
2018-01-19T10:37:21.873Z,56.91
2018-01-19T10:38:27.656Z,56.93
2018-01-19T10:39:33.382Z,56.88
2018-01-19T10:40:39.106Z,56.78
2018-01-19T10:41:44.844Z,56.82
2018-01-19T10:42:50.601Z,57.00
2018-01-19T10:43:56.345Z,57.22
2018-01-19T10:45:02.088Z,57.55
2018-01-19T10:46:07.826Z,57.96
2018-01-19T10:47:13.545Z,58.39
2018-01-19T10:48:19.322Z,58.66
2018-01-19T10:49:25.150Z,58.85
2018-01-19T10:50:30.878Z,59.00
2018-01-19T10:51:36.616Z,59.06
2018-01-19T10:52:42.645Z,59.27
2018-01-19T10:53:49.145Z,59.47
2018-01-19T10:54:55.155Z,59.93
2018-01-19T10:56:00.893Z,60.26
2018-01-19T10:57:06.618Z,60.42
2018-01-19T10:58:12.360Z,60.72
2018-01-19T10:59:18.640Z,60.89
2018-01-19T11:00:24.416Z,61.12
2018-01-19T11:01:30.152Z,61.16
2018-01-19T11:02:35.892Z,61.32
2018-01-19T11:03:41.630Z,61.44
2018-01-19T11:04:47.369Z,61.59
2018-01-19T11:05:53.110Z,61.58
2018-01-19T11:06:58.848Z,61.58
2018-01-19T11:08:04.585Z,61.80
2018-01-19T11:09:10.308Z,62.19
2018-01-19T11:10:16.024Z,62.62
2018-01-19T11:11:22.539Z,62.66
2018-01-19T11:12:28.253Z,62.63
2018-01-19T11:13:34.228Z,62.79
2018-01-19T11:14:40.029Z,62.88
2018-01-19T11:15:46.490Z,62.89
2018-01-19T11:16:52.228Z,62.80
2018-01-19T11:17:57.947Z,62.85
2018-01-19T11:19:04.251Z,62.87
2018-01-19T11:20:09.968Z,62.99
2018-01-19T11:21:16.452Z,62.82
2018-01-19T11:22:22.205Z,62.82
2018-01-19T11:23:27.955Z,62.78
2018-01-19T11:24:33.684Z,62.78
2018-01-19T11:25:39.395Z,62.70
2018-01-19T11:26:45.115Z,62.69
2018-01-19T11:27:51.676Z,62.69
2018-01-19T11:28:58.182Z,62.73
2018-01-19T11:30:03.919Z,62.96
2018-01-19T11:31:09.750Z,63.00
2018-01-19T11:32:15.468Z,63.06
2018-01-19T11:33:21.994Z,63.29
2018-01-19T11:34:27.744Z,63.49
2018-01-19T11:35:34.993Z,63.65
2018-01-19T11:36:40.719Z,63.72
2018-01-19T11:37:46.464Z,63.94
2018-01-19T11:38:52.277Z,63.98
2018-01-19T11:39:58.164Z,63.94
2018-01-19T11:41:03.894Z,63.90
2018-01-19T11:42:09.628Z,63.75
2018-01-19T11:43:15.357Z,63.67
2018-01-19T11:44:21.417Z,63.53
2018-01-19T11:45:27.128Z,63.42
2018-01-19T11:46:32.950Z,63.45
2018-01-19T11:47:38.703Z,63.37
2018-01-19T11:48:45.226Z,63.46
2018-01-19T11:49:50.988Z,63.42
2018-01-19T11:50:57.456Z,63.35
2018-01-19T11:52:03.967Z,62.70
2018-01-19T11:53:09.703Z,62.31
2018-01-19T11:54:15.418Z,62.37
2018-01-19T11:55:21.717Z,62.58
2018-01-19T11:56:27.484Z,62.60
2018-01-19T11:57:33.976Z,62.60
2018-01-19T11:58:39.715Z,62.86
2018-01-19T11:59:46.193Z,63.16
2018-01-19T12:00:52.069Z,63.02
2018-01-19T12:01:57.602Z,62.97
2018-01-19T12:03:03.319Z,62.96
2018-01-19T12:04:09.829Z,63.00
2018-01-19T12:05:15.610Z,62.95
2018-01-19T12:06:21.371Z,62.81
2018-01-19T12:07:27.102Z,62.77
2018-01-19T12:08:32.880Z,62.91
2018-01-19T12:09:38.593Z,63.02
2018-01-19T12:10:44.327Z,63.05
2018-01-19T12:11:50.135Z,63.15
2018-01-19T12:12:56.623Z,63.15
2018-01-19T12:14:02.359Z,63.48
2018-01-19T12:15:08.096Z,63.70
2018-01-19T12:16:13.865Z,64.08
2018-01-19T12:17:19.929Z,64.61
2018-01-19T12:18:25.650Z,64.85
2018-01-19T12:19:31.363Z,65.05
2018-01-19T12:20:37.072Z,64.97
2018-01-19T12:21:43.582Z,64.92
2018-01-19T12:22:49.324Z,64.93
2018-01-19T12:23:55.092Z,65.10
2018-01-19T12:25:00.826Z,65.33
2018-01-19T12:26:06.546Z,65.55
2018-01-19T12:27:12.290Z,65.77
2018-01-19T12:28:18.055Z,65.85
2018-01-19T12:29:23.779Z,66.08
2018-01-19T12:30:29.523Z,66.40
2018-01-19T12:31:35.236Z,66.62
2018-01-19T12:32:41.104Z,66.76
2018-01-19T12:33:46.933Z,66.68
2018-01-19T12:34:52.782Z,66.63
2018-01-19T12:35:58.517Z,66.67
2018-01-19T12:37:04.257Z,66.58
2018-01-19T12:38:10.042Z,66.71
2018-01-19T12:39:16.578Z,66.92
2018-01-19T12:40:22.432Z,67.11
2018-01-19T12:41:29.861Z,67.35
2018-01-19T12:42:35.590Z,67.44
2018-01-19T12:43:42.260Z,67.63
2018-01-19T12:44:48.031Z,67.64
2018-01-19T12:45:53.749Z,67.99
2018-01-19T12:46:59.480Z,68.30
2018-01-19T12:48:06.033Z,68.48
2018-01-19T12:49:12.652Z,68.53
2018-01-19T12:50:18.795Z,68.42
2018-01-19T12:51:24.523Z,68.65
2018-01-19T12:52:30.243Z,68.79
2018-01-19T12:53:35.963Z,68.80
2018-01-19T12:54:42.471Z,68.88
2018-01-19T12:55:48.233Z,68.73
2018-01-19T12:56:53.959Z,68.69
2018-01-19T12:57:59.682Z,68.57
2018-01-19T12:59:05.422Z,68.44
2018-01-19T13:00:11.159Z,68.31
2018-01-19T13:01:16.911Z,68.04
2018-01-19T13:02:22.628Z,67.93
2018-01-19T13:03:28.197Z,67.86
2018-01-19T13:04:33.941Z,67.75
2018-01-19T13:05:39.752Z,67.79
2018-01-19T13:06:45.341Z,67.72
2018-01-19T13:07:51.211Z,67.98
2018-01-19T13:08:57.684Z,68.32
2018-01-19T13:10:03.457Z,68.50
2018-01-19T13:11:09.194Z,68.62
2018-01-19T13:12:14.968Z,68.70
2018-01-19T13:13:20.728Z,68.81
2018-01-19T13:14:27.280Z,69.01
2018-01-19T13:15:34.001Z,69.11
2018-01-19T13:16:39.873Z,69.09
2018-01-19T13:17:45.630Z,69.06
2018-01-19T13:18:52.134Z,69.37
2018-01-19T13:19:57.902Z,69.66
2018-01-19T13:21:03.616Z,69.73
2018-01-19T13:22:09.324Z,69.83
2018-01-19T13:23:15.864Z,69.84
2018-01-19T13:24:21.596Z,69.98
2018-01-19T13:25:28.119Z,69.73
2018-01-19T13:26:34.854Z,69.46
2018-01-19T13:27:41.352Z,69.18
2018-01-19T13:28:47.101Z,69.19
2018-01-19T13:29:52.838Z,69.29
2018-01-19T13:30:58.249Z,69.08
2018-01-19T13:32:04.009Z,69.00
2018-01-19T13:33:09.751Z,68.84
2018-01-19T13:34:15.621Z,68.54
2018-01-19T13:35:22.245Z,68.24
2018-01-19T13:36:28.030Z,68.18
2018-01-19T13:37:33.967Z,68.08
2018-01-19T13:38:39.685Z,68.02
2018-01-19T13:39:45.487Z,67.78
2018-01-19T13:40:51.991Z,67.66
2018-01-19T13:41:57.738Z,67.55
2018-01-19T13:43:03.579Z,67.52
2018-01-19T13:44:09.311Z,67.51
2018-01-19T13:45:15.268Z,67.54
2018-01-19T13:46:22.792Z,67.51
2018-01-19T13:47:28.611Z,67.39
2018-01-19T13:48:34.153Z,67.26
2018-01-19T13:49:39.904Z,67.37
2018-01-19T13:50:45.879Z,67.59
2018-01-19T13:51:51.635Z,67.63
2018-01-19T13:52:57.371Z,67.64
2018-01-19T13:54:03.108Z,67.82
2018-01-19T13:55:08.833Z,68.02
2018-01-19T13:56:15.383Z,68.06
2018-01-19T13:57:22.671Z,68.04
2018-01-19T13:58:29.166Z,68.05
2018-01-19T13:59:34.923Z,68.09
2018-01-19T14:00:40.702Z,68.01
2018-01-19T14:01:47.236Z,67.98
2018-01-19T14:02:52.965Z,68.00
2018-01-19T14:03:58.722Z,68.03
2018-01-19T14:05:04.451Z,67.98
2018-01-19T14:06:10.218Z,67.96
2018-01-19T14:07:16.204Z,68.03
2018-01-19T14:08:21.970Z,68.13